Terminal Aerodrome Forecast
Issued by NWS Wilmington, OH

Home | Current Version | Previous Version | Text Only | Print | Product List | Glossary On
Versions: 1 2 3 4 5 6 7 8 9 10 11 12 13 14
000
FTUS41 KILN 260227 AAB
TAFILN
TAF AMD
KILN 260227Z 2602/2624 14006KT P6SM SCT250
     FM260800 17007KT P6SM BKN250
     FM261300 17008KT P6SM SCT250
     FM261600 17012G20KT P6SM SCT250=

USA.gov is the U.S. government's official web portal to all federal, state and local government web resources and services.